sensor_id;sensor_type;location;lat;lon;timestamp;P1;durP1;ratioP1;P2;durP2;ratioP2
41623;SDS011;27319;50.306;18.926;2022-08-19T04:32:48;13.10;;;10.73;;
41623;SDS011;27319;50.306;18.926;2022-08-19T04:35:51;14.20;;;11.45;;
41623;SDS011;27319;50.306;18.926;2022-08-19T04:38:53;12.50;;;11.05;;
41623;SDS011;27319;50.306;18.926;2022-08-19T04:41:56;14.00;;;11.50;;
41623;SDS011;27319;50.306;18.926;2022-08-19T04:45:15;14.70;;;11.27;;
41623;SDS011;27319;50.306;18.926;2022-08-19T04:48:17;17.92;;;10.88;;
41623;SDS011;27319;50.306;18.926;2022-08-19T04:51:26;13.50;;;10.13;;
41623;SDS011;27319;50.306;18.926;2022-08-19T04:54:27;13.32;;;10.73;;
41623;SDS011;27319;50.306;18.926;2022-08-19T04:57:27;13.80;;;10.07;;
41623;SDS011;27319;50.306;18.926;2022-08-19T05:00:29;12.50;;;11.02;;
41623;SDS011;27319;50.306;18.926;2022-08-19T05:03:29;13.25;;;10.90;;
41623;SDS011;27319;50.306;18.926;2022-08-19T05:06:33;13.02;;;9.60;;
41623;SDS011;27319;50.306;18.926;2022-08-19T05:09:35;15.77;;;10.65;;
41623;SDS011;27319;50.306;18.926;2022-08-19T05:12:36;17.52;;;10.52;;
41623;SDS011;27319;50.306;18.926;2022-08-19T05:15:37;17.63;;;10.48;;
41623;SDS011;27319;50.306;18.926;2022-08-19T05:18:39;12.77;;;10.18;;
41623;SDS011;27319;50.306;18.926;2022-08-19T05:21:59;11.90;;;10.05;;
41623;SDS011;27319;50.306;18.926;2022-08-19T05:25:19;20.42;;;10.32;;
41623;SDS011;27319;50.306;18.926;2022-08-19T05:28:21;13.18;;;10.05;;
41623;SDS011;27319;50.306;18.926;2022-08-19T05:31:22;18.33;;;10.65;;
41623;SDS011;27319;50.306;18.926;2022-08-19T05:34:23;20.42;;;10.40;;
41623;SDS011;27319;50.306;18.926;2022-08-19T05:37:26;17.67;;;10.88;;
41623;SDS011;27319;50.306;18.926;2022-08-19T05:40:27;18.30;;;9.88;;
41623;SDS011;27319;50.306;18.926;2022-08-19T05:43:28;20.38;;;9.77;;
41623;SDS011;27319;50.306;18.926;2022-08-19T05:46:29;20.10;;;10.32;;
41623;SDS011;27319;50.306;18.926;2022-08-19T05:49:31;18.38;;;10.20;;
41623;SDS011;27319;50.306;18.926;2022-08-19T05:52:33;19.38;;;10.20;;
41623;SDS011;27319;50.306;18.926;2022-08-19T05:55:36;15.30;;;9.57;;
41623;SDS011;27319;50.306;18.926;2022-08-19T05:58:38;14.95;;;9.25;;
41623;SDS011;27319;50.306;18.926;2022-08-19T06:01:41;14.50;;;9.85;;
41623;SDS011;27319;50.306;18.926;2022-08-19T06:05:40;16.70;;;9.00;;
41623;SDS011;27319;50.306;18.926;2022-08-19T06:09:40;11.40;;;9.50;;
41623;SDS011;27319;50.306;18.926;2022-08-19T06:13:41;14.77;;;10.38;;
41623;SDS011;27319;50.306;18.926;2022-08-19T06:17:41;16.92;;;9.68;;
41623;SDS011;27319;50.306;18.926;2022-08-19T06:21:44;18.80;;;9.48;;
41623;SDS011;27319;50.306;18.926;2022-08-19T06:25:42;14.63;;;9.70;;
41623;SDS011;27319;50.306;18.926;2022-08-19T06:29:43;11.80;;;9.15;;
41623;SDS011;27319;50.306;18.926;2022-08-19T06:33:44;12.23;;;9.20;;
41623;SDS011;27319;50.306;18.926;2022-08-19T06:37:44;14.68;;;10.40;;
41623;SDS011;27319;50.306;18.926;2022-08-19T06:41:46;14.88;;;9.45;;
41623;SDS011;27319;50.306;18.926;2022-08-19T06:45:45;18.85;;;9.65;;
41623;SDS011;27319;50.306;18.926;2022-08-19T06:49:46;22.80;;;11.18;;
41623;SDS011;27319;50.306;18.926;2022-08-19T06:53:47;15.15;;;10.38;;
41623;SDS011;27319;50.306;18.926;2022-08-19T06:57:47;14.30;;;9.90;;
41623;SDS011;27319;50.306;18.926;2022-08-19T07:01:51;18.95;;;9.75;;
41623;SDS011;27319;50.306;18.926;2022-08-19T07:05:51;16.25;;;9.45;;
41623;SDS011;27319;50.306;18.926;2022-08-19T07:09:54;18.63;;;9.27;;
41623;SDS011;27319;50.306;18.926;2022-08-19T07:13:55;18.67;;;9.65;;
41623;SDS011;27319;50.306;18.926;2022-08-19T07:17:58;14.65;;;9.00;;
41623;SDS011;27319;50.306;18.926;2022-08-19T07:22:00;12.07;;;9.40;;
41623;SDS011;27319;50.306;18.926;2022-08-19T07:26:06;13.95;;;8.98;;
41623;SDS011;27319;50.306;18.926;2022-08-19T07:30:07;13.55;;;9.23;;
41623;SDS011;27319;50.306;18.926;2022-08-19T07:34:07;16.42;;;8.88;;
41623;SDS011;27319;50.306;18.926;2022-08-19T07:38:07;15.40;;;10.35;;
41623;SDS011;27319;50.306;18.926;2022-08-19T07:42:09;22.05;;;9.88;;
41623;SDS011;27319;50.306;18.926;2022-08-19T07:46:09;17.55;;;9.30;;
41623;SDS011;27319;50.306;18.926;2022-08-19T07:50:09;14.98;;;8.88;;
41623;SDS011;27319;50.306;18.926;2022-08-19T07:54:09;12.05;;;9.35;;
41623;SDS011;27319;50.306;18.926;2022-08-19T07:58:11;11.93;;;9.60;;
41623;SDS011;27319;50.306;18.926;2022-08-19T08:02:10;14.27;;;9.15;;
41623;SDS011;27319;50.306;18.926;2022-08-19T08:06:11;13.75;;;9.02;;
41623;SDS011;27319;50.306;18.926;2022-08-19T08:10:21;12.90;;;9.13;;
41623;SDS011;27319;50.306;18.926;2022-08-19T08:14:24;15.70;;;9.27;;
41623;SDS011;27319;50.306;18.926;2022-08-19T08:18:25;18.88;;;10.25;;
41623;SDS011;27319;50.306;18.926;2022-08-19T08:22:22;24.08;;;9.77;;
41623;SDS011;27319;50.306;18.926;2022-08-19T08:26:22;13.02;;;8.75;;
41623;SDS011;27319;50.306;18.926;2022-08-19T08:30:23;18.83;;;8.48;;
41623;SDS011;27319;50.306;18.926;2022-08-19T08:34:23;19.92;;;8.45;;
41623;SDS011;27319;50.306;18.926;2022-08-19T08:38:23;11.00;;;7.72;;
41623;SDS011;27319;50.306;18.926;2022-08-19T08:42:27;14.93;;;7.72;;
41623;SDS011;27319;50.306;18.926;2022-08-19T08:49:48;12.50;;;8.00;;
41623;SDS011;27319;50.306;18.926;2022-08-19T08:53:49;19.30;;;12.25;;
41623;SDS011;27319;50.306;18.926;2022-08-19T09:01:12;12.35;;;8.70;;
41623;SDS011;27319;50.306;18.926;2022-08-19T09:05:13;12.25;;;8.18;;
41623;SDS011;27319;50.306;18.926;2022-08-19T09:13:28;13.63;;;7.70;;
41623;SDS011;27319;50.306;18.926;2022-08-19T09:17:20;25.15;;;7.93;;
41623;SDS011;27319;50.306;18.926;2022-08-19T09:21:21;11.10;;;7.03;;
41623;SDS011;27319;50.306;18.926;2022-08-19T09:25:21;10.63;;;7.70;;
41623;SDS011;27319;50.306;18.926;2022-08-19T09:29:21;14.50;;;8.10;;
41623;SDS011;27319;50.306;18.926;2022-08-19T09:33:21;14.20;;;8.10;;
41623;SDS011;27319;50.306;18.926;2022-08-19T09:37:22;16.00;;;7.63;;
41623;SDS011;27319;50.306;18.926;2022-08-19T09:41:23;12.95;;;7.55;;
41623;SDS011;27319;50.306;18.926;2022-08-19T09:45:23;11.60;;;8.07;;
41623;SDS011;27319;50.306;18.926;2022-08-19T09:49:24;13.73;;;7.55;;
41623;SDS011;27319;50.306;18.926;2022-08-19T09:53:24;9.30;;;6.32;;
41623;SDS011;27319;50.306;18.926;2022-08-19T09:57:25;11.15;;;6.60;;
41623;SDS011;27319;50.306;18.926;2022-08-19T10:01:26;10.30;;;6.65;;
41623;SDS011;27319;50.306;18.926;2022-08-19T10:05:26;12.95;;;6.60;;
41623;SDS011;27319;50.306;18.926;2022-08-19T10:09:26;10.40;;;7.13;;
41623;SDS011;27319;50.306;18.926;2022-08-19T10:13:28;20.63;;;7.50;;
41623;SDS011;27319;50.306;18.926;2022-08-19T10:17:28;13.55;;;7.00;;
41623;SDS011;27319;50.306;18.926;2022-08-19T10:21:29;11.07;;;6.85;;
41623;SDS011;27319;50.306;18.926;2022-08-19T10:25:29;9.45;;;7.43;;
41623;SDS011;27319;50.306;18.926;2022-08-19T10:29:30;12.07;;;7.60;;
41623;SDS011;27319;50.306;18.926;2022-08-19T10:33:30;13.63;;;6.68;;
41623;SDS011;27319;50.306;18.926;2022-08-19T10:37:30;14.82;;;6.95;;
41623;SDS011;27319;50.306;18.926;2022-08-19T10:41:32;10.75;;;7.30;;
41623;SDS011;27319;50.306;18.926;2022-08-19T10:45:31;13.55;;;6.78;;
41623;SDS011;27319;50.306;18.926;2022-08-19T10:49:32;12.57;;;6.78;;
41623;SDS011;27319;50.306;18.926;2022-08-19T10:53:31;8.93;;;5.72;;
41623;SDS011;27319;50.306;18.926;2022-08-19T10:57:32;16.33;;;6.60;;
41623;SDS011;27319;50.306;18.926;2022-08-19T11:01:33;11.82;;;6.15;;
41623;SDS011;27319;50.306;18.926;2022-08-19T11:05:33;10.77;;;6.30;;
41623;SDS011;27319;50.306;18.926;2022-08-19T11:09:40;17.70;;;6.25;;
41623;SDS011;27319;50.306;18.926;2022-08-19T11:13:40;11.57;;;6.70;;
41623;SDS011;27319;50.306;18.926;2022-08-19T11:17:40;10.88;;;6.93;;
41623;SDS011;27319;50.306;18.926;2022-08-19T11:21:42;14.85;;;6.35;;
41623;SDS011;27319;50.306;18.926;2022-08-19T11:25:41;9.82;;;6.00;;
41623;SDS011;27319;50.306;18.926;2022-08-19T11:29:42;16.65;;;6.18;;
41623;SDS011;27319;50.306;18.926;2022-08-19T11:33:42;16.65;;;6.90;;
41623;SDS011;27319;50.306;18.926;2022-08-19T11:37:43;12.57;;;6.40;;
41623;SDS011;27319;50.306;18.926;2022-08-19T11:41:43;9.32;;;5.80;;
41623;SDS011;27319;50.306;18.926;2022-08-19T11:45:42;14.63;;;6.00;;
41623;SDS011;27319;50.306;18.926;2022-08-19T11:49:46;12.02;;;6.07;;
41623;SDS011;27319;50.306;18.926;2022-08-19T11:53:46;15.48;;;5.63;;
41623;SDS011;27319;50.306;18.926;2022-08-19T11:57:46;15.32;;;5.80;;
41623;SDS011;27319;50.306;18.926;2022-08-19T12:01:47;18.63;;;5.63;;
41623;SDS011;27319;50.306;18.926;2022-08-19T12:05:47;8.52;;;4.80;;
41623;SDS011;27319;50.306;18.926;2022-08-19T12:09:48;15.02;;;5.80;;
41623;SDS011;27319;50.306;18.926;2022-08-19T12:13:49;13.02;;;5.10;;
41623;SDS011;27319;50.306;18.926;2022-08-19T12:17:49;10.48;;;5.53;;
41623;SDS011;27319;50.306;18.926;2022-08-19T12:21:50;12.85;;;5.25;;
41623;SDS011;27319;50.306;18.926;2022-08-19T12:25:50;22.63;;;5.18;;
41623;SDS011;27319;50.306;18.926;2022-08-19T12:29:51;10.75;;;5.32;;
41623;SDS011;27319;50.306;18.926;2022-08-19T12:33:51;13.65;;;5.35;;
41623;SDS011;27319;50.306;18.926;2022-08-19T12:37:52;10.43;;;5.35;;
41623;SDS011;27319;50.306;18.926;2022-08-19T12:41:53;10.13;;;5.18;;
41623;SDS011;27319;50.306;18.926;2022-08-19T12:45:53;13.05;;;5.40;;
41623;SDS011;27319;50.306;18.926;2022-08-19T12:49:54;12.60;;;5.10;;
41623;SDS011;27319;50.306;18.926;2022-08-19T12:53:57;13.15;;;6.05;;
41623;SDS011;27319;50.306;18.926;2022-08-19T12:57:58;12.68;;;5.10;;
41623;SDS011;27319;50.306;18.926;2022-08-19T13:01:58;12.52;;;5.95;;
41623;SDS011;27319;50.306;18.926;2022-08-19T13:05:59;11.10;;;4.93;;
41623;SDS011;27319;50.306;18.926;2022-08-19T13:09:59;12.55;;;5.45;;
41623;SDS011;27319;50.306;18.926;2022-08-19T13:14:00;8.18;;;5.07;;
41623;SDS011;27319;50.306;18.926;2022-08-19T13:18:00;10.60;;;5.20;;
41623;SDS011;27319;50.306;18.926;2022-08-19T13:22:01;11.45;;;5.53;;
41623;SDS011;27319;50.306;18.926;2022-08-19T13:26:04;10.57;;;5.38;;
41623;SDS011;27319;50.306;18.926;2022-08-19T13:30:03;15.63;;;5.53;;
41623;SDS011;27319;50.306;18.926;2022-08-19T13:34:19;9.50;;;5.32;;
41623;SDS011;27319;50.306;18.926;2022-08-19T13:38:20;12.02;;;5.22;;
41623;SDS011;27319;50.306;18.926;2022-08-19T13:42:19;16.17;;;4.97;;
41623;SDS011;27319;50.306;18.926;2022-08-19T13:46:20;14.50;;;5.82;;
41623;SDS011;27319;50.306;18.926;2022-08-19T13:50:21;12.35;;;4.57;;
41623;SDS011;27319;50.306;18.926;2022-08-19T13:54:21;18.30;;;4.97;;
41623;SDS011;27319;50.306;18.926;2022-08-19T13:58:21;15.23;;;4.90;;
41623;SDS011;27319;50.306;18.926;2022-08-19T14:02:22;9.88;;;4.25;;
41623;SDS011;27319;50.306;18.926;2022-08-19T14:06:22;15.18;;;4.65;;
41623;SDS011;27319;50.306;18.926;2022-08-19T14:10:23;13.02;;;4.47;;
41623;SDS011;27319;50.306;18.926;2022-08-19T14:14:23;11.48;;;4.60;;
41623;SDS011;27319;50.306;18.926;2022-08-19T14:18:24;12.23;;;4.60;;
41623;SDS011;27319;50.306;18.926;2022-08-19T14:22:24;10.05;;;5.28;;
41623;SDS011;27319;50.306;18.926;2022-08-19T14:26:25;12.80;;;5.25;;
41623;SDS011;27319;50.306;18.926;2022-08-19T14:30:27;14.82;;;5.00;;
41623;SDS011;27319;50.306;18.926;2022-08-19T14:34:26;12.32;;;5.03;;
41623;SDS011;27319;50.306;18.926;2022-08-19T14:38:27;12.52;;;5.57;;
41623;SDS011;27319;50.306;18.926;2022-08-19T14:42:27;15.63;;;6.18;;
41623;SDS011;27319;50.306;18.926;2022-08-19T14:46:28;14.27;;;5.35;;
41623;SDS011;27319;50.306;18.926;2022-08-19T14:50:28;13.40;;;5.40;;
41623;SDS011;27319;50.306;18.926;2022-08-19T14:54:29;14.52;;;5.03;;
41623;SDS011;27319;50.306;18.926;2022-08-19T14:58:33;15.90;;;5.55;;
41623;SDS011;27319;50.306;18.926;2022-08-19T15:02:33;13.68;;;5.65;;
41623;SDS011;27319;50.306;18.926;2022-08-19T15:06:34;13.13;;;5.10;;
41623;SDS011;27319;50.306;18.926;2022-08-19T15:10:34;14.45;;;5.13;;
41623;SDS011;27319;50.306;18.926;2022-08-19T15:14:36;16.38;;;5.22;;
41623;SDS011;27319;50.306;18.926;2022-08-19T15:18:35;11.10;;;6.43;;
41623;SDS011;27319;50.306;18.926;2022-08-19T15:22:36;12.95;;;6.25;;
41623;SDS011;27319;50.306;18.926;2022-08-19T15:26:36;11.52;;;5.90;;
41623;SDS011;27319;50.306;18.926;2022-08-19T15:30:37;15.65;;;5.65;;
41623;SDS011;27319;50.306;18.926;2022-08-19T15:34:37;16.67;;;5.65;;
41623;SDS011;27319;50.306;18.926;2022-08-19T15:38:38;18.85;;;6.72;;
41623;SDS011;27319;50.306;18.926;2022-08-19T15:42:39;16.13;;;6.10;;
41623;SDS011;27319;50.306;18.926;2022-08-19T15:46:40;19.30;;;5.82;;
41623;SDS011;27319;50.306;18.926;2022-08-19T15:50:40;15.75;;;6.65;;
41623;SDS011;27319;50.306;18.926;2022-08-19T15:54:40;15.45;;;6.75;;
41623;SDS011;27319;50.306;18.926;2022-08-19T15:58:41;15.80;;;6.13;;
41623;SDS011;27319;50.306;18.926;2022-08-19T16:02:40;62.58;;;23.67;;
41623;SDS011;27319;50.306;18.926;2022-08-19T16:06:39;45.72;;;18.48;;
41623;SDS011;27319;50.306;18.926;2022-08-19T16:10:39;26.10;;;9.43;;
41623;SDS011;27319;50.306;18.926;2022-08-19T16:14:40;15.32;;;6.95;;
41623;SDS011;27319;50.306;18.926;2022-08-19T16:18:40;19.27;;;7.47;;
41623;SDS011;27319;50.306;18.926;2022-08-19T16:22:41;22.58;;;8.23;;
41623;SDS011;27319;50.306;18.926;2022-08-19T16:26:42;22.63;;;9.60;;
41623;SDS011;27319;50.306;18.926;2022-08-19T16:30:42;20.73;;;8.82;;
41623;SDS011;27319;50.306;18.926;2022-08-19T16:34:43;14.13;;;7.20;;
41623;SDS011;27319;50.306;18.926;2022-08-19T16:38:43;17.65;;;8.20;;
41623;SDS011;27319;50.306;18.926;2022-08-19T16:42:44;16.65;;;8.45;;
41623;SDS011;27319;50.306;18.926;2022-08-19T16:46:45;18.42;;;7.10;;
41623;SDS011;27319;50.306;18.926;2022-08-19T16:50:45;17.08;;;6.68;;
41623;SDS011;27319;50.306;18.926;2022-08-19T16:54:46;13.40;;;6.70;;
41623;SDS011;27319;50.306;18.926;2022-08-19T16:58:47;17.33;;;7.88;;
41623;SDS011;27319;50.306;18.926;2022-08-19T17:02:47;13.30;;;8.30;;
41623;SDS011;27319;50.306;18.926;2022-08-19T17:06:47;18.38;;;8.73;;
41623;SDS011;27319;50.306;18.926;2022-08-19T17:10:48;19.02;;;8.73;;
41623;SDS011;27319;50.306;18.926;2022-08-19T17:14:49;24.08;;;9.10;;
41623;SDS011;27319;50.306;18.926;2022-08-19T17:18:53;24.75;;;8.52;;
41623;SDS011;27319;50.306;18.926;2022-08-19T17:22:53;12.40;;;7.82;;
41623;SDS011;27319;50.306;18.926;2022-08-19T17:26:53;18.10;;;9.52;;
41623;SDS011;27319;50.306;18.926;2022-08-19T17:30:54;13.65;;;8.55;;
41623;SDS011;27319;50.306;18.926;2022-08-19T17:34:54;20.83;;;9.18;;
41623;SDS011;27319;50.306;18.926;2022-08-19T17:38:56;29.77;;;9.23;;
41623;SDS011;27319;50.306;18.926;2022-08-19T17:42:55;30.77;;;8.10;;
41623;SDS011;27319;50.306;18.926;2022-08-19T17:46:56;21.55;;;6.97;;
41623;SDS011;27319;50.306;18.926;2022-08-19T17:50:56;15.40;;;5.97;;
41623;SDS011;27319;50.306;18.926;2022-08-19T17:55:00;13.15;;;5.65;;
41623;SDS011;27319;50.306;18.926;2022-08-19T17:59:00;13.75;;;5.78;;
41623;SDS011;27319;50.306;18.926;2022-08-19T18:03:01;28.63;;;7.85;;
41623;SDS011;27319;50.306;18.926;2022-08-19T18:07:01;21.65;;;7.35;;
41623;SDS011;27319;50.306;18.926;2022-08-19T18:11:02;11.98;;;6.07;;
41623;SDS011;27319;50.306;18.926;2022-08-19T18:15:04;13.35;;;5.53;;
41623;SDS011;27319;50.306;18.926;2022-08-19T18:19:03;15.55;;;5.60;;
41623;SDS011;27319;50.306;18.926;2022-08-19T18:23:03;6.22;;;4.15;;
41623;SDS011;27319;50.306;18.926;2022-08-19T18:27:04;9.15;;;5.60;;
41623;SDS011;27319;50.306;18.926;2022-08-19T18:31:05;10.43;;;5.57;;
41623;SDS011;27319;50.306;18.926;2022-08-19T18:35:09;13.23;;;5.82;;
41623;SDS011;27319;50.306;18.926;2022-08-19T18:39:08;12.93;;;5.55;;
41623;SDS011;27319;50.306;18.926;2022-08-19T18:43:08;16.73;;;6.60;;
41623;SDS011;27319;50.306;18.926;2022-08-19T18:47:06;12.50;;;5.68;;
41623;SDS011;27319;50.306;18.926;2022-08-19T18:51:05;13.90;;;6.00;;
41623;SDS011;27319;50.306;18.926;2022-08-19T18:55:06;16.35;;;6.70;;
41623;SDS011;27319;50.306;18.926;2022-08-19T18:59:06;12.13;;;6.43;;
41623;SDS011;27319;50.306;18.926;2022-08-19T19:03:07;10.95;;;5.90;;
41623;SDS011;27319;50.306;18.926;2022-08-19T19:07:07;15.38;;;6.10;;
41623;SDS011;27319;50.306;18.926;2022-08-19T19:11:08;17.50;;;6.03;;
41623;SDS011;27319;50.306;18.926;2022-08-19T19:15:09;15.43;;;5.75;;
41623;SDS011;27319;50.306;18.926;2022-08-19T19:19:09;11.65;;;5.50;;
41623;SDS011;27319;50.306;18.926;2022-08-19T19:23:10;13.05;;;6.10;;
41623;SDS011;27319;50.306;18.926;2022-08-19T19:27:11;10.20;;;5.68;;
41623;SDS011;27319;50.306;18.926;2022-08-19T19:31:14;14.15;;;6.43;;
41623;SDS011;27319;50.306;18.926;2022-08-19T19:35:11;13.50;;;6.22;;
41623;SDS011;27319;50.306;18.926;2022-08-19T19:39:12;11.80;;;6.22;;
41623;SDS011;27319;50.306;18.926;2022-08-19T19:43:12;12.70;;;5.43;;
41623;SDS011;27319;50.306;18.926;2022-08-19T19:47:13;12.68;;;6.80;;
41623;SDS011;27319;50.306;18.926;2022-08-19T19:51:14;12.30;;;6.30;;
41623;SDS011;27319;50.306;18.926;2022-08-19T19:55:15;12.35;;;6.20;;
41623;SDS011;27319;50.306;18.926;2022-08-19T19:59:15;13.55;;;6.25;;
41623;SDS011;27319;50.306;18.926;2022-08-19T20:03:15;15.75;;;6.93;;
41623;SDS011;27319;50.306;18.926;2022-08-19T20:07:16;13.63;;;8.32;;
41623;SDS011;27319;50.306;18.926;2022-08-19T20:15:28;19.70;;;11.40;;
41623;SDS011;27319;50.306;18.926;2022-08-19T20:19:30;23.60;;;13.80;;
41623;SDS011;27319;50.306;18.926;2022-08-19T20:23:29;22.70;;;13.77;;
41623;SDS011;27319;50.306;18.926;2022-08-19T20:27:29;25.02;;;13.70;;
41623;SDS011;27319;50.306;18.926;2022-08-19T20:31:30;23.23;;;12.63;;
41623;SDS011;27319;50.306;18.926;2022-08-19T20:35:31;21.02;;;12.32;;
41623;SDS011;27319;50.306;18.926;2022-08-19T20:39:31;17.42;;;12.38;;
41623;SDS011;27319;50.306;18.926;2022-08-19T20:43:34;22.50;;;12.90;;
41623;SDS011;27319;50.306;18.926;2022-08-19T20:47:35;18.67;;;12.70;;
41623;SDS011;27319;50.306;18.926;2022-08-19T20:51:35;18.35;;;12.25;;
41623;SDS011;27319;50.306;18.926;2022-08-19T20:55:36;20.50;;;12.88;;
41623;SDS011;27319;50.306;18.926;2022-08-19T20:59:36;23.20;;;12.88;;
41623;SDS011;27319;50.306;18.926;2022-08-19T21:03:39;15.60;;;12.02;;
41623;SDS011;27319;50.306;18.926;2022-08-19T21:07:37;15.27;;;11.32;;
41623;SDS011;27319;50.306;18.926;2022-08-19T21:11:38;18.20;;;14.20;;
41623;SDS011;27319;50.306;18.926;2022-08-19T21:15:39;21.98;;;13.82;;
41623;SDS011;27319;50.306;18.926;2022-08-19T21:19:39;30.10;;;18.67;;
41623;SDS011;27319;50.306;18.926;2022-08-19T21:23:40;22.85;;;17.23;;
41623;SDS011;27319;50.306;18.926;2022-08-19T21:27:40;22.73;;;16.77;;
41623;SDS011;27319;50.306;18.926;2022-08-19T21:31:41;26.45;;;18.77;;
41623;SDS011;27319;50.306;18.926;2022-08-19T21:35:42;25.55;;;18.95;;
41623;SDS011;27319;50.306;18.926;2022-08-19T21:39:42;26.17;;;19.13;;
41623;SDS011;27319;50.306;18.926;2022-08-19T21:43:43;29.15;;;18.77;;
41623;SDS011;27319;50.306;18.926;2022-08-19T21:47:43;25.17;;;17.40;;
41623;SDS011;27319;50.306;18.926;2022-08-19T21:51:44;25.45;;;17.00;;
41623;SDS011;27319;50.306;18.926;2022-08-19T21:55:45;22.48;;;14.25;;
41623;SDS011;27319;50.306;18.926;2022-08-19T21:59:45;21.58;;;11.70;;
41623;SDS011;27319;50.306;18.926;2022-08-19T22:03:46;14.30;;;10.82;;
41623;SDS011;27319;50.306;18.926;2022-08-19T22:07:46;17.92;;;9.93;;
41623;SDS011;27319;50.306;18.926;2022-08-19T22:11:47;15.27;;;9.63;;
41623;SDS011;27319;50.306;18.926;2022-08-19T22:15:48;14.38;;;10.15;;
41623;SDS011;27319;50.306;18.926;2022-08-19T22:19:48;16.85;;;9.50;;
41623;SDS011;27319;50.306;18.926;2022-08-19T22:23:49;14.45;;;9.23;;
41623;SDS011;27319;50.306;18.926;2022-08-19T22:27:50;13.48;;;9.57;;
41623;SDS011;27319;50.306;18.926;2022-08-19T22:31:50;13.52;;;9.00;;
41623;SDS011;27319;50.306;18.926;2022-08-19T22:35:51;13.05;;;9.27;;
41623;SDS011;27319;50.306;18.926;2022-08-19T22:39:51;13.10;;;8.88;;
41623;SDS011;27319;50.306;18.926;2022-08-19T22:43:52;15.98;;;10.48;;
41623;SDS011;27319;50.306;18.926;2022-08-19T22:47:52;18.77;;;10.45;;
41623;SDS011;27319;50.306;18.926;2022-08-19T22:51:52;14.77;;;11.02;;
41623;SDS011;27319;50.306;18.926;2022-08-19T22:55:53;18.60;;;10.57;;
41623;SDS011;27319;50.306;18.926;2022-08-19T22:59:58;15.27;;;10.70;;
41623;SDS011;27319;50.306;18.926;2022-08-19T23:03:59;17.05;;;10.35;;
41623;SDS011;27319;50.306;18.926;2022-08-19T23:08:03;14.60;;;10.55;;
41623;SDS011;27319;50.306;18.926;2022-08-19T23:12:03;21.65;;;10.82;;
41623;SDS011;27319;50.306;18.926;2022-08-19T23:16:04;20.40;;;11.50;;
41623;SDS011;27319;50.306;18.926;2022-08-19T23:20:06;17.17;;;11.10;;
41623;SDS011;27319;50.306;18.926;2022-08-19T23:24:05;20.92;;;11.93;;
41623;SDS011;27319;50.306;18.926;2022-08-19T23:28:06;18.58;;;10.93;;
41623;SDS011;27319;50.306;18.926;2022-08-19T23:32:05;24.88;;;12.05;;
41623;SDS011;27319;50.306;18.926;2022-08-19T23:36:07;20.60;;;11.52;;
41623;SDS011;27319;50.306;18.926;2022-08-19T23:40:06;18.00;;;11.80;;
41623;SDS011;27319;50.306;18.926;2022-08-19T23:44:07;18.98;;;13.23;;
41623;SDS011;27319;50.306;18.926;2022-08-19T23:48:08;23.20;;;12.07;;
41623;SDS011;27319;50.306;18.926;2022-08-19T23:52:08;20.70;;;12.07;;
41623;SDS011;27319;50.306;18.926;2022-08-19T23:56:09;18.00;;;10.75;;
